CCA925 KOAK-KSAN
Flight info
| Callsign | CCA925 |
|---|---|
| Flight time | N/A |
| Altitude | 35000 |
| Route | CNDEL5 YYUNG LAX COMIX2 |
| Aircraft | B738/M-SDE2E3FGHIRWXY/LB1 |
Departure
| Time | N/A |
|---|---|
| Airport | San Francisco Bay Oakland International Airport (KOAK) |
Arrival
| Time | 2026-04-22 05:47 |
|---|---|
| Airport | San Diego International Airport (KSAN) |
| Time | Latitude | Longitude | Altitude | Speed | Heading |
|---|---|---|---|---|---|
| 2026-04-22 04:29 | 37.39449 | -122.46414 | 26163 ft | 366 kts | 202° |
| 2026-04-22 04:29 | 37.36967 | -122.47184 | 26605 ft | 369 kts | 201° |
| 2026-04-22 04:29 | 37.34454 | -122.47870 | 27032 ft | 373 kts | 200° |
| 2026-04-22 04:29 | 37.31889 | -122.48502 | 27493 ft | 375 kts | 199° |
| 2026-04-22 04:30 | 37.24555 | -122.50301 | 28709 ft | 379 kts | 199° |
| 2026-04-22 04:30 | 37.21962 | -122.50958 | 29103 ft | 381 kts | 199° |
| 2026-04-22 04:31 | 37.19363 | -122.51621 | 29548 ft | 382 kts | 199° |
| 2026-04-22 04:31 | 37.16755 | -122.52290 | 29929 ft | 384 kts | 199° |
| 2026-04-22 04:31 | 37.14127 | -122.52964 | 30268 ft | 386 kts | 199° |
| 2026-04-22 04:31 | 37.11489 | -122.53640 | 30559 ft | 388 kts | 199° |
| 2026-04-22 04:32 | 37.08841 | -122.54318 | 30882 ft | 389 kts | 199° |
| 2026-04-22 04:32 | 37.06177 | -122.55000 | 31180 ft | 391 kts | 199° |
| 2026-04-22 04:32 | 37.03490 | -122.55613 | 31439 ft | 400 kts | 191° |
| 2026-04-22 04:32 | 37.00664 | -122.55308 | 31893 ft | 412 kts | 178° |
| 2026-04-22 04:33 | 36.97877 | -122.54382 | 32395 ft | 422 kts | 166° |
| 2026-04-22 04:33 | 36.95251 | -122.52676 | 32905 ft | 428 kts | 159° |
| 2026-04-22 04:33 | 36.92717 | -122.50709 | 33342 ft | 429 kts | 157° |
| 2026-04-22 04:33 | 36.90217 | -122.48695 | 33769 ft | 426 kts | 157° |
| 2026-04-22 04:34 | 36.87713 | -122.46727 | 34142 ft | 424 kts | 158° |
| 2026-04-22 04:34 | 36.85179 | -122.44859 | 34387 ft | 423 kts | 160° |
| 2026-04-22 04:34 | 36.82619 | -122.43034 | 34599 ft | 424 kts | 160° |
| 2026-04-22 04:34 | 36.80046 | -122.41209 | 34831 ft | 425 kts | 160° |
| 2026-04-22 04:35 | 36.77486 | -122.39379 | 35121 ft | 425 kts | 159° |
| 2026-04-22 04:35 | 36.72323 | -122.35650 | 35119 ft | 431 kts | 159° |
| 2026-04-22 04:36 | 36.62113 | -122.28187 | 35136 ft | 422 kts | 159° |
| 2026-04-22 04:37 | 36.58755 | -122.25743 | 35137 ft | 422 kts | 159° |
| 2026-04-22 04:37 | 36.51620 | -122.20557 | 35141 ft | 423 kts | 159° |
| 2026-04-22 04:38 | 36.47391 | -122.17486 | 35141 ft | 423 kts | 159° |
| 2026-04-22 04:38 | 36.42302 | -122.13796 | 35135 ft | 424 kts | 159° |
| 2026-04-22 04:39 | 36.37203 | -122.10105 | 35136 ft | 424 kts | 159° |
| 2026-04-22 04:39 | 36.32106 | -122.06420 | 35131 ft | 424 kts | 159° |
| 2026-04-22 04:40 | 36.27010 | -122.02740 | 35144 ft | 423 kts | 159° |
| 2026-04-22 04:40 | 36.21931 | -121.99079 | 35144 ft | 422 kts | 159° |
| 2026-04-22 04:41 | 36.16859 | -121.95429 | 35148 ft | 421 kts | 159° |
| 2026-04-22 04:41 | 36.11800 | -121.91794 | 35147 ft | 421 kts | 159° |
| 2026-04-22 04:42 | 36.06742 | -121.88164 | 35147 ft | 420 kts | 159° |
| 2026-04-22 04:42 | 36.01682 | -121.84539 | 35148 ft | 421 kts | 158° |
| 2026-04-22 04:42 | 35.99242 | -121.82483 | 35128 ft | 434 kts | 146° |
| 2026-04-22 04:43 | 35.97203 | -121.79657 | 35171 ft | 445 kts | 136° |
| 2026-04-22 04:43 | 35.93524 | -121.73443 | 35150 ft | 449 kts | 134° |
| 2026-04-22 04:44 | 35.89836 | -121.67223 | 35148 ft | 449 kts | 135° |
| 2026-04-22 04:44 | 35.86046 | -121.61108 | 35148 ft | 449 kts | 136° |
| 2026-04-22 04:45 | 35.82214 | -121.55041 | 35153 ft | 449 kts | 136° |
| 2026-04-22 04:45 | 35.78372 | -121.48976 | 35152 ft | 449 kts | 136° |
| 2026-04-22 04:46 | 35.74532 | -121.42915 | 35148 ft | 448 kts | 135° |
| 2026-04-22 04:46 | 35.70701 | -121.36873 | 35144 ft | 448 kts | 135° |
| 2026-04-22 04:47 | 35.66875 | -121.30848 | 35140 ft | 446 kts | 135° |
| 2026-04-22 04:47 | 35.63056 | -121.24846 | 35143 ft | 445 kts | 135° |
| 2026-04-22 04:48 | 35.59251 | -121.18876 | 35142 ft | 443 kts | 135° |
| 2026-04-22 04:48 | 35.55452 | -121.12924 | 35148 ft | 442 kts | 135° |
| 2026-04-22 04:49 | 35.51655 | -121.06988 | 35145 ft | 441 kts | 135° |
| 2026-04-22 04:49 | 35.47992 | -121.00915 | 35156 ft | 444 kts | 132° |
| 2026-04-22 04:50 | 35.44447 | -120.94692 | 35140 ft | 445 kts | 131° |
| 2026-04-22 04:50 | 35.40900 | -120.88485 | 35147 ft | 444 kts | 132° |
| 2026-04-22 04:51 | 35.37329 | -120.82314 | 35154 ft | 444 kts | 132° |
| 2026-04-22 04:51 | 35.33740 | -120.76153 | 35133 ft | 444 kts | 132° |
| 2026-04-22 04:52 | 35.30146 | -120.70000 | 35143 ft | 444 kts | 132° |
| 2026-04-22 04:52 | 35.26543 | -120.63842 | 35134 ft | 445 kts | 132° |
| 2026-04-22 04:53 | 35.22940 | -120.57692 | 35142 ft | 445 kts | 132° |
| 2026-04-22 04:53 | 35.19334 | -120.51547 | 35148 ft | 445 kts | 132° |
| 2026-04-22 04:54 | 35.15725 | -120.45407 | 35130 ft | 444 kts | 132° |
| 2026-04-22 04:54 | 35.12132 | -120.39304 | 35131 ft | 443 kts | 132° |
| 2026-04-22 04:55 | 35.08534 | -120.33207 | 35135 ft | 441 kts | 132° |
| 2026-04-22 04:55 | 35.04948 | -120.27138 | 35135 ft | 441 kts | 132° |
| 2026-04-22 04:56 | 35.01362 | -120.21082 | 35150 ft | 440 kts | 132° |
| 2026-04-22 04:56 | 34.97777 | -120.15037 | 35139 ft | 440 kts | 132° |
| 2026-04-22 04:57 | 34.94188 | -120.08996 | 35133 ft | 440 kts | 131° |
| 2026-04-22 04:57 | 34.90597 | -120.02960 | 35142 ft | 439 kts | 131° |
| 2026-04-22 04:58 | 34.87007 | -119.96937 | 35137 ft | 439 kts | 131° |
| 2026-04-22 04:58 | 34.83423 | -119.90933 | 35136 ft | 438 kts | 131° |
| 2026-04-22 04:59 | 34.79844 | -119.84949 | 35134 ft | 437 kts | 131° |
| 2026-04-22 04:59 | 34.76259 | -119.78964 | 35301 ft | 441 kts | 133° |
| 2026-04-22 04:59 | 34.74466 | -119.75877 | 35198 ft | 453 kts | 130° |
| 2026-04-22 05:00 | 34.72734 | -119.72640 | 35192 ft | 462 kts | 128° |
| 2026-04-22 05:00 | 34.69244 | -119.65916 | 35133 ft | 478 kts | 128° |
| 2026-04-22 05:01 | 34.65650 | -119.58980 | 35138 ft | 492 kts | 128° |
| 2026-04-22 05:01 | 34.61567 | -119.52289 | 35149 ft | 493 kts | 142° |
| 2026-04-22 05:02 | 34.56640 | -119.46386 | 35140 ft | 505 kts | 140° |
| 2026-04-22 05:02 | 34.52179 | -119.39671 | 35136 ft | 514 kts | 131° |
| 2026-04-22 05:03 | 34.48071 | -119.32544 | 35123 ft | 515 kts | 131° |
| 2026-04-22 05:03 | 34.43945 | -119.25477 | 35144 ft | 512 kts | 132° |
| 2026-04-22 05:04 | 34.39779 | -119.18580 | 35136 ft | 509 kts | 133° |
| 2026-04-22 05:04 | 34.35550 | -119.11677 | 35148 ft | 505 kts | 133° |
| 2026-04-22 05:05 | 34.31373 | -119.04868 | 35159 ft | 502 kts | 133° |
| 2026-04-22 05:05 | 34.27225 | -118.98104 | 35158 ft | 499 kts | 133° |
| 2026-04-22 05:06 | 34.23094 | -118.91374 | 35154 ft | 498 kts | 133° |
| 2026-04-22 05:06 | 34.18995 | -118.84703 | 34802 ft | 489 kts | 133° |
| 2026-04-22 05:06 | 34.16980 | -118.81425 | 34261 ft | 483 kts | 133° |
| 2026-04-22 05:07 | 34.14997 | -118.78202 | 33822 ft | 472 kts | 133° |
| 2026-04-22 05:07 | 34.13056 | -118.75051 | 33270 ft | 465 kts | 133° |
| 2026-04-22 05:07 | 34.11214 | -118.72069 | 32668 ft | 461 kts | 133° |
| 2026-04-22 05:07 | 34.09296 | -118.68969 | 32002 ft | 458 kts | 133° |
| 2026-04-22 05:08 | 34.07397 | -118.65904 | 31425 ft | 454 kts | 133° |
| 2026-04-22 05:08 | 34.05519 | -118.62872 | 30913 ft | 448 kts | 133° |
| 2026-04-22 05:08 | 34.03797 | -118.60090 | 30555 ft | 439 kts | 133° |
| 2026-04-22 05:08 | 34.01982 | -118.57160 | 30174 ft | 431 kts | 134° |
| 2026-04-22 05:09 | 34.00204 | -118.54293 | 29763 ft | 422 kts | 134° |
| 2026-04-22 05:09 | 33.98467 | -118.51497 | 29386 ft | 413 kts | 134° |
| 2026-04-22 05:09 | 33.96763 | -118.48756 | 29034 ft | 404 kts | 134° |
| 2026-04-22 05:09 | 33.95115 | -118.46107 | 28683 ft | 397 kts | 134° |
| 2026-04-22 05:10 | 33.93465 | -118.43459 | 28346 ft | 395 kts | 135° |
| 2026-04-22 05:10 | 33.91735 | -118.40866 | 28014 ft | 402 kts | 138° |
| 2026-04-22 05:10 | 33.89833 | -118.38324 | 27669 ft | 415 kts | 141° |
| 2026-04-22 05:10 | 33.87786 | -118.35793 | 27263 ft | 414 kts | 142° |
| 2026-04-22 05:11 | 33.85816 | -118.33375 | 26877 ft | 407 kts | 142° |
| 2026-04-22 05:11 | 33.83859 | -118.30932 | 26523 ft | 404 kts | 141° |
| 2026-04-22 05:11 | 33.81972 | -118.28528 | 26160 ft | 403 kts | 141° |
| 2026-04-22 05:11 | 33.80070 | -118.26072 | 25799 ft | 401 kts | 140° |
| 2026-04-22 05:12 | 33.78175 | -118.23618 | 25443 ft | 399 kts | 140° |
| 2026-04-22 05:12 | 33.76291 | -118.21167 | 25086 ft | 398 kts | 140° |
| 2026-04-22 05:12 | 33.74424 | -118.18715 | 24725 ft | 397 kts | 140° |
| 2026-04-22 05:12 | 33.72564 | -118.16266 | 24354 ft | 396 kts | 140° |
| 2026-04-22 05:13 | 33.70712 | -118.13826 | 23985 ft | 395 kts | 140° |
| 2026-04-22 05:13 | 33.68861 | -118.11392 | 23580 ft | 394 kts | 140° |
| 2026-04-22 05:13 | 33.67014 | -118.08967 | 23171 ft | 392 kts | 140° |
| 2026-04-22 05:13 | 33.65177 | -118.06557 | 22789 ft | 390 kts | 139° |
| 2026-04-22 05:14 | 33.63350 | -118.04163 | 22450 ft | 387 kts | 139° |
| 2026-04-22 05:14 | 33.61536 | -118.01787 | 22091 ft | 385 kts | 139° |
| 2026-04-22 05:14 | 33.59709 | -117.99396 | 21730 ft | 382 kts | 139° |
| 2026-04-22 05:14 | 33.57944 | -117.97089 | 21389 ft | 379 kts | 139° |
| 2026-04-22 05:15 | 33.56163 | -117.94762 | 21041 ft | 377 kts | 139° |
| 2026-04-22 05:15 | 33.54387 | -117.92469 | 20693 ft | 374 kts | 141° |
| 2026-04-22 05:15 | 33.52561 | -117.90286 | 20413 ft | 367 kts | 143° |
| 2026-04-22 05:15 | 33.50687 | -117.88162 | 20003 ft | 367 kts | 144° |
| 2026-04-22 05:16 | 33.48860 | -117.86103 | 19732 ft | 363 kts | 143° |
| 2026-04-22 05:16 | 33.47034 | -117.84015 | 19315 ft | 364 kts | 143° |
| 2026-04-22 05:16 | 33.45223 | -117.81923 | 19025 ft | 360 kts | 142° |
| 2026-04-22 05:16 | 33.43415 | -117.79841 | 18626 ft | 360 kts | 143° |
| 2026-04-22 05:17 | 33.41582 | -117.77837 | 18339 ft | 355 kts | 145° |
| 2026-04-22 05:17 | 33.39740 | -117.75884 | 17908 ft | 354 kts | 145° |
| 2026-04-22 05:17 | 33.37894 | -117.73940 | 17543 ft | 352 kts | 145° |
| 2026-04-22 05:17 | 33.36063 | -117.72005 | 17185 ft | 350 kts | 145° |
| 2026-04-22 05:18 | 33.32448 | -117.68109 | 16193 ft | 356 kts | 143° |
| 2026-04-22 05:18 | 33.30653 | -117.66071 | 15657 ft | 359 kts | 142° |
| 2026-04-22 05:18 | 33.28850 | -117.63999 | 15260 ft | 358 kts | 142° |
| 2026-04-22 05:19 | 33.27061 | -117.61939 | 14893 ft | 355 kts | 142° |
| 2026-04-22 05:19 | 33.25287 | -117.59901 | 14541 ft | 352 kts | 142° |
| 2026-04-22 05:19 | 33.23522 | -117.57881 | 14192 ft | 350 kts | 142° |
| 2026-04-22 05:19 | 33.21771 | -117.55885 | 13833 ft | 347 kts | 142° |
| 2026-04-22 05:20 | 33.20593 | -117.54545 | 13587 ft | 345 kts | 142° |
| 2026-04-22 05:20 | 33.18884 | -117.52606 | 13231 ft | 342 kts | 142° |
| 2026-04-22 05:20 | 33.17168 | -117.50659 | 12885 ft | 339 kts | 142° |
| 2026-04-22 05:20 | 33.15467 | -117.48732 | 12546 ft | 336 kts | 142° |
| 2026-04-22 05:21 | 33.13758 | -117.46798 | 12207 ft | 332 kts | 142° |
| 2026-04-22 05:21 | 33.12170 | -117.45001 | 11899 ft | 329 kts | 142° |
| 2026-04-22 05:21 | 33.10516 | -117.43131 | 11579 ft | 327 kts | 142° |
| 2026-04-22 05:21 | 33.08873 | -117.41273 | 11254 ft | 324 kts | 142° |
| 2026-04-22 05:22 | 33.07245 | -117.39435 | 10949 ft | 321 kts | 142° |
| 2026-04-22 05:22 | 33.05630 | -117.37612 | 10625 ft | 319 kts | 142° |
| 2026-04-22 05:22 | 33.04024 | -117.35801 | 10305 ft | 317 kts | 142° |
| 2026-04-22 05:22 | 33.02431 | -117.34004 | 10089 ft | 311 kts | 142° |
| 2026-04-22 05:23 | 33.00879 | -117.32253 | 9904 ft | 304 kts | 142° |
| 2026-04-22 05:23 | 32.99386 | -117.30566 | 9619 ft | 293 kts | 142° |
| 2026-04-22 05:23 | 32.97921 | -117.28916 | 9285 ft | 286 kts | 142° |
| 2026-04-22 05:23 | 32.96490 | -117.27305 | 8974 ft | 279 kts | 141° |
| 2026-04-22 05:24 | 32.95100 | -117.25741 | 8692 ft | 271 kts | 141° |
| 2026-04-22 05:24 | 32.93747 | -117.24221 | 8411 ft | 264 kts | 141° |
| 2026-04-22 05:24 | 32.92038 | -117.22302 | 8096 ft | 263 kts | 141° |
| 2026-04-22 05:24 | 32.90701 | -117.20805 | 7842 ft | 267 kts | 141° |
| 2026-04-22 05:25 | 32.89322 | -117.19261 | 7580 ft | 276 kts | 141° |
| 2026-04-22 05:25 | 32.87919 | -117.17688 | 7298 ft | 276 kts | 141° |
| 2026-04-22 05:25 | 32.86541 | -117.16139 | 7014 ft | 269 kts | 140° |
| 2026-04-22 05:25 | 32.85201 | -117.14632 | 6730 ft | 261 kts | 140° |
| 2026-04-22 05:26 | 32.83901 | -117.13173 | 6499 ft | 253 kts | 140° |
| 2026-04-22 05:26 | 32.83064 | -117.12234 | 6424 ft | 246 kts | 140° |
| 2026-04-22 05:26 | 32.81419 | -117.10392 | 6275 ft | 242 kts | 140° |
| 2026-04-22 05:26 | 32.80598 | -117.09474 | 6203 ft | 245 kts | 141° |
| 2026-04-22 05:27 | 32.78917 | -117.07596 | 6074 ft | 247 kts | 140° |
| 2026-04-22 05:27 | 32.78124 | -117.06640 | 5982 ft | 245 kts | 131° |
| 2026-04-22 05:27 | 32.77429 | -117.04794 | 5784 ft | 246 kts | 106° |
| 2026-04-22 05:27 | 32.77026 | -117.02836 | 5602 ft | 242 kts | 106° |
| 2026-04-22 05:28 | 32.76583 | -117.00921 | 5394 ft | 239 kts | 108° |
| 2026-04-22 05:28 | 32.76113 | -116.99026 | 5217 ft | 239 kts | 108° |
| 2026-04-22 05:28 | 32.75450 | -116.97226 | 4929 ft | 240 kts | 128° |
| 2026-04-22 05:28 | 32.74253 | -116.95921 | 4635 ft | 230 kts | 154° |
| 2026-04-22 05:29 | 32.72777 | -116.95396 | 4402 ft | 217 kts | 181° |
| 2026-04-22 05:29 | 32.71326 | -116.95630 | 4137 ft | 206 kts | 202° |
| 2026-04-22 05:29 | 32.70113 | -116.96431 | 3924 ft | 194 kts | 223° |
| 2026-04-22 05:29 | 32.69290 | -116.97628 | 3705 ft | 183 kts | 241° |
| 2026-04-22 05:30 | 32.68818 | -116.98995 | 3454 ft | 175 kts | 262° |
| 2026-04-22 05:30 | 32.68853 | -117.00387 | 3231 ft | 166 kts | 280° |
| 2026-04-22 05:30 | 32.69138 | -117.01689 | 3020 ft | 161 kts | 287° |
| 2026-04-22 05:30 | 32.69454 | -117.02956 | 2883 ft | 160 kts | 286° |
| 2026-04-22 05:31 | 32.70406 | -117.06825 | 2210 ft | 159 kts | 287° |
| 2026-04-22 05:31 | 32.70719 | -117.08103 | 2071 ft | 162 kts | 287° |
| 2026-04-22 05:32 | 32.71377 | -117.10799 | 2009 ft | 161 kts | 287° |
| 2026-04-22 05:32 | 32.71946 | -117.13092 | 2494 ft | 157 kts | 288° |
| 2026-04-22 05:33 | 32.72271 | -117.14368 | 2836 ft | 163 kts | 288° |
| 2026-04-22 05:33 | 32.72631 | -117.15645 | 2829 ft | 162 kts | 290° |
| 2026-04-22 05:33 | 32.73040 | -117.16852 | 2880 ft | 158 kts | 292° |
| 2026-04-22 05:33 | 32.73460 | -117.18097 | 3128 ft | 164 kts | 290° |
| 2026-04-22 05:34 | 32.73836 | -117.19410 | 3066 ft | 174 kts | 289° |
| 2026-04-22 05:34 | 32.74263 | -117.20911 | 2980 ft | 203 kts | 288° |
| 2026-04-22 05:34 | 32.74697 | -117.22530 | 2787 ft | 210 kts | 289° |
| 2026-04-22 05:34 | 32.75165 | -117.24215 | 2585 ft | 215 kts | 289° |
| 2026-04-22 05:35 | 32.75634 | -117.25986 | 2474 ft | 242 kts | 286° |
| 2026-04-22 05:35 | 32.75979 | -117.28023 | 3204 ft | 255 kts | 278° |
| 2026-04-22 05:35 | 32.76176 | -117.30112 | 4515 ft | 245 kts | 275° |
| 2026-04-22 05:35 | 32.76472 | -117.32018 | 5672 ft | 236 kts | 285° |
| 2026-04-22 05:36 | 32.77010 | -117.33905 | 5399 ft | 242 kts | 290° |
| 2026-04-22 05:36 | 32.77610 | -117.35699 | 5509 ft | 231 kts | 293° |
| 2026-04-22 05:36 | 32.78667 | -117.37294 | 5551 ft | 262 kts | 323° |
| 2026-04-22 05:36 | 32.80393 | -117.37939 | 5579 ft | 267 kts | 357° |
| 2026-04-22 05:37 | 32.82188 | -117.37336 | 5634 ft | 275 kts | 30° |
| 2026-04-22 05:37 | 32.83532 | -117.35713 | 5789 ft | 277 kts | 56° |
| 2026-04-22 05:37 | 32.84430 | -117.33648 | 6105 ft | 291 kts | 72° |
| 2026-04-22 05:37 | 32.84599 | -117.31265 | 6001 ft | 290 kts | 101° |
| 2026-04-22 05:38 | 32.83996 | -117.29014 | 6013 ft | 284 kts | 114° |
| 2026-04-22 05:38 | 32.83258 | -117.26814 | 5905 ft | 284 kts | 112° |
| 2026-04-22 05:38 | 32.82555 | -117.24644 | 5995 ft | 285 kts | 112° |
| 2026-04-22 05:38 | 32.81906 | -117.22401 | 5980 ft | 288 kts | 109° |
| 2026-04-22 05:39 | 32.81342 | -117.20111 | 5993 ft | 288 kts | 107° |
| 2026-04-22 05:39 | 32.80797 | -117.17827 | 5991 ft | 287 kts | 108° |
| 2026-04-22 05:39 | 32.80241 | -117.15553 | 5992 ft | 286 kts | 108° |
| 2026-04-22 05:39 | 32.79669 | -117.13290 | 5991 ft | 285 kts | 108° |
| 2026-04-22 05:40 | 32.79087 | -117.11039 | 5987 ft | 285 kts | 109° |
| 2026-04-22 05:40 | 32.78499 | -117.08787 | 5998 ft | 285 kts | 109° |
| 2026-04-22 05:40 | 32.77909 | -117.06536 | 5992 ft | 286 kts | 109° |
| 2026-04-22 05:40 | 32.77342 | -117.04263 | 5972 ft | 286 kts | 108° |
| 2026-04-22 05:41 | 32.76803 | -117.02031 | 5966 ft | 275 kts | 108° |
| 2026-04-22 05:41 | 32.76284 | -116.99877 | 5715 ft | 271 kts | 108° |
| 2026-04-22 05:41 | 32.75718 | -116.97695 | 5110 ft | 276 kts | 113° |
| 2026-04-22 05:41 | 32.74648 | -116.95883 | 4707 ft | 265 kts | 144° |
| 2026-04-22 05:42 | 32.73013 | -116.95099 | 4402 ft | 249 kts | 181° |
| 2026-04-22 05:42 | 32.71394 | -116.95494 | 4164 ft | 232 kts | 208° |
| 2026-04-22 05:42 | 32.70059 | -116.96445 | 3915 ft | 217 kts | 224° |
| 2026-04-22 05:42 | 32.69187 | -116.97829 | 3646 ft | 204 kts | 244° |
| 2026-04-22 05:43 | 32.68759 | -116.99382 | 3387 ft | 193 kts | 268° |
| 2026-04-22 05:43 | 32.68937 | -117.00903 | 3162 ft | 182 kts | 287° |
| 2026-04-22 05:43 | 32.69306 | -117.02297 | 2930 ft | 173 kts | 288° |
| 2026-04-22 05:43 | 32.69639 | -117.03632 | 2716 ft | 163 kts | 287° |
| 2026-04-22 05:44 | 32.69944 | -117.04891 | 2515 ft | 155 kts | 287° |
| 2026-04-22 05:44 | 32.70233 | -117.06082 | 2354 ft | 145 kts | 287° |
| 2026-04-22 05:44 | 32.70505 | -117.07206 | 2154 ft | 141 kts | 287° |
| 2026-04-22 05:44 | 32.70776 | -117.08319 | 1955 ft | 142 kts | 287° |
| 2026-04-22 05:45 | 32.71049 | -117.09443 | 1742 ft | 141 kts | 287° |
| 2026-04-22 05:45 | 32.71320 | -117.10559 | 1520 ft | 141 kts | 287° |
| 2026-04-22 05:45 | 32.71594 | -117.11682 | 1349 ft | 141 kts | 287° |
| 2026-04-22 05:45 | 32.71880 | -117.12812 | 1120 ft | 145 kts | 287° |
| 2026-04-22 05:46 | 32.72146 | -117.13955 | 863 ft | 142 kts | 287° |
| 2026-04-22 05:46 | 32.72412 | -117.15076 | 650 ft | 143 kts | 287° |
| 2026-04-22 05:46 | 32.72699 | -117.16250 | 421 ft | 148 kts | 285° |
| 2026-04-22 05:46 | 32.72968 | -117.17382 | 167 ft | 139 kts | 287° |
| 2026-04-22 05:47 | 32.73239 | -117.18462 | 23 ft | 131 kts | 287° |
| 2026-04-22 05:47 | 32.73435 | -117.19284 | 23 ft | 74 kts | 287° |
| 2026-04-22 05:47 | 32.73525 | -117.19634 | 27 ft | 14 kts | 287° |
| 2026-04-22 05:47 | 32.73528 | -117.19648 | 25 ft | 0 kts | 287° |